Remsen, Iowa
Current Conditions -  °F | °C
As of 11:55 PM on Wednesday 17 Dec 2014 (Local Time) from KLRJ Reporting Station
Overcast Overcast  
Wind Chill: 21°   Ceiling: 7000
Heat Index: 21°   Visibility: 10mi
Dew Point: 18°   Wind: 0mph
Humidity: 86%   Direction: NA
Pressure: 30.28"   Gusts: NA
Location:  42.81°N, 95.97°W
Report Text: KLRJ 180555Z AUTO 00000KT 10SM OVC070 M06/M08 A3028 RMK AO2
Loading
Personal Weather Stations






























Interactive Weather Map New forecast layout! Learn more

10-Day Weather Forecast

Advertisements
Track Severe Weather on mobile